Time;durP1;ratioP1;P1;durP2;ratioP2;P2;SDS_P1;SDS_P2;PMS_P1;PMS_P2;Temp;Humidity;BMP_temperature;BMP_pressure;BME280_temperature;BME280_humidity;BME280_pressure;Samples;Min_cycle;Max_cycle;Signal;HPM_P1;HPM_P2
2023/08/03 00:00:05;;;;;;;;;;;16.30;99.90;;;;;;5119884;28;19914;-60
2023/08/03 00:02:34;;;;;;;;;;;16.30;99.90;;;;;;5119735;28;20033;-60
2023/08/03 00:05:03;;;;;;;;;;;16.30;99.90;;;;;;5119804;28;19919;-60
2023/08/03 00:07:28;;;;;;;;;;;16.30;99.90;;;;;;5119564;28;19919;-60
2023/08/03 00:09:55;;;;;;;;;;;16.30;99.90;;;;;;5119759;28;19908;-60
2023/08/03 00:12:22;;;;;;;;;;;16.20;99.90;;;;;;5119735;28;19908;-59
2023/08/03 00:14:49;;;;;;;;;;;16.20;99.90;;;;;;5119651;28;19918;-60
2023/08/03 00:17:15;;;;;;;;;;;16.20;99.90;;;;;;5119793;28;19911;-59
2023/08/03 00:19:40;;;;;;;;;;;16.20;99.90;;;;;;5119665;28;19914;-59
2023/08/03 00:22:06;;;;;;;;;;;16.20;99.90;;;;;;5119157;28;20408;-59
2023/08/03 00:24:32;;;;;;;;;;;16.20;99.90;;;;;;5118233;28;20425;-59
2023/08/03 00:26:57;;;;;;;;;;;16.20;99.90;;;;;;5119830;28;20335;-59
2023/08/03 00:29:23;;;;;;;;;;;16.10;99.90;;;;;;5119202;28;19914;-60
2023/08/03 00:31:48;;;;;;;;;;;16.00;99.90;;;;;;5119251;28;19919;-59
2023/08/03 00:34:14;;;;;;;;;;;16.00;99.90;;;;;;5119017;28;19965;-60
2023/08/03 00:36:40;;;;;;;;;;;15.90;99.90;;;;;;5119002;28;19914;-60
2023/08/03 00:39:05;;;;;;;;;;;15.90;99.90;;;;;;5119163;28;19908;-60
2023/08/03 00:41:31;;;;;;;;;;;15.90;99.90;;;;;;5119090;28;20417;-60
2023/08/03 00:43:57;;;;;;;;;;;15.90;99.90;;;;;;5119111;28;20371;-60
2023/08/03 00:46:23;;;;;;;;;;;15.90;99.90;;;;;;5118994;28;19968;-59
2023/08/03 00:48:48;;;;;;;;;;;15.90;99.90;;;;;;5118640;28;19919;-60
2023/08/03 00:51:14;;;;;;;;;;;15.90;99.90;;;;;;5119196;28;19908;-60
2023/08/03 00:53:40;;;;;;;;;;;15.90;99.90;;;;;;5118764;28;19914;-60
2023/08/03 00:56:05;;;;;;;;;;;15.90;99.90;;;;;;5118962;28;19994;-59
2023/08/03 00:58:31;;;;;;;;;;;15.90;99.90;;;;;;5118783;28;19912;-60
2023/08/03 01:00:56;;;;;;;;;;;15.90;99.90;;;;;;5118729;28;20006;-59
2023/08/03 01:03:22;;;;;;;;;;;15.90;99.90;;;;;;5118311;28;19947;-60
2023/08/03 01:05:48;;;;;;;;;;;15.90;99.90;;;;;;5118329;28;19908;-60
2023/08/03 01:08:14;;;;;;;;;;;15.90;99.90;;;;;;5118364;28;19917;-59
2023/08/03 01:10:40;;;;;;;;;;;15.90;99.90;;;;;;5118690;28;19908;-59
2023/08/03 01:13:06;;;;;;;;;;;15.90;99.90;;;;;;5118516;28;19908;-60
2023/08/03 01:15:31;;;;;;;;;;;15.90;99.90;;;;;;5118720;28;20351;-60
2023/08/03 01:17:57;;;;;;;;;;;15.90;99.90;;;;;;5118638;28;20329;-60
2023/08/03 01:20:23;;;;;;;;;;;16.00;99.90;;;;;;5118592;28;20452;-59
2023/08/03 01:22:49;;;;;;;;;;;16.00;99.90;;;;;;5118556;28;19914;-60
2023/08/03 01:25:15;;;;;;;;;;;15.90;99.90;;;;;;5118443;28;19951;-60
2023/08/03 01:27:44;;;;;;;;;;;16.00;99.90;;;;;;5118285;28;19915;-60
2023/08/03 01:30:10;;;;;;;;;;;15.90;99.90;;;;;;5118086;28;20339;-60
2023/08/03 01:32:36;;;;;;;;;;;15.90;99.90;;;;;;5118186;28;19991;-60
2023/08/03 01:35:01;;;;;;;;;;;15.80;99.90;;;;;;5119207;28;19907;-60
2023/08/03 01:37:27;;;;;;;;;;;15.80;99.90;;;;;;5122635;28;20278;-59
2023/08/03 01:39:53;;;;;;;;;;;15.80;99.90;;;;;;5122524;28;19908;-60
2023/08/03 01:42:18;;;;;;;;;;;15.80;99.90;;;;;;5104116;28;19919;-59
2023/08/03 01:44:45;;;;;;;;;;;15.80;99.90;;;;;;5122339;28;19939;-59
2023/08/03 01:47:10;;;;;;;;;;;15.80;99.90;;;;;;5122710;28;19929;-60
2023/08/03 01:49:36;;;;;;;;;;;15.90;99.90;;;;;;5122353;28;20321;-60
2023/08/03 01:52:02;;;;;;;;;;;15.80;99.90;;;;;;5122531;28;20381;-59
2023/08/03 01:54:27;;;;;;;;;;;15.90;99.90;;;;;;5122244;28;19908;-60
2023/08/03 01:56:53;;;;;;;;;;;15.90;99.90;;;;;;5122303;28;19915;-60
2023/08/03 01:59:19;;;;;;;;;;;15.90;99.90;;;;;;5122317;28;19915;-60
2023/08/03 02:01:45;;;;;;;;;;;15.90;99.90;;;;;;5122268;28;20252;-60
2023/08/03 02:04:10;;;;;;;;;;;16.00;99.90;;;;;;5122022;28;19914;-60
2023/08/03 02:06:37;;;;;;;;;;;15.90;99.90;;;;;;5122149;28;19980;-60
2023/08/03 02:09:04;;;;;;;;;;;16.00;99.90;;;;;;5122373;28;19953;-60
2023/08/03 02:11:29;;;;;;;;;;;16.00;99.90;;;;;;5121877;28;19945;-60
2023/08/03 02:13:55;;;;;;;;;;;15.90;99.90;;;;;;5122036;28;19908;-60
2023/08/03 02:16:21;;;;;;;;;;;16.00;99.90;;;;;;5121860;28;19914;-60
2023/08/03 02:18:46;;;;;;;;;;;16.00;99.90;;;;;;5121859;28;19981;-60
2023/08/03 02:21:12;;;;;;;;;;;15.90;99.90;;;;;;5121464;28;19920;-60
2023/08/03 02:23:38;;;;;;;;;;;16.00;99.90;;;;;;5121824;28;19908;-60
2023/08/03 02:26:03;;;;;;;;;;;15.90;99.90;;;;;;5121844;28;19908;-60
2023/08/03 02:28:29;;;;;;;;;;;15.90;99.90;;;;;;5121720;28;19957;-60
2023/08/03 02:30:55;;;;;;;;;;;15.90;99.90;;;;;;5121879;28;20383;-60
2023/08/03 02:33:20;;;;;;;;;;;16.00;99.90;;;;;;5121790;28;19908;-60
2023/08/03 02:35:46;;;;;;;;;;;16.00;99.90;;;;;;5121392;28;19954;-60
2023/08/03 02:38:12;;;;;;;;;;;16.00;99.90;;;;;;5121226;28;19912;-60
2023/08/03 02:40:37;;;;;;;;;;;16.00;99.90;;;;;;5121584;28;19972;-60
2023/08/03 02:43:03;;;;;;;;;;;16.00;99.90;;;;;;5121250;28;19986;-60
2023/08/03 02:45:28;;;;;;;;;;;16.00;99.90;;;;;;5121504;28;19981;-60
2023/08/03 02:47:55;;;;;;;;;;;16.00;99.90;;;;;;5119887;28;19915;-60
2023/08/03 02:50:21;;;;;;;;;;;16.10;99.90;;;;;;5121054;28;20015;-60
2023/08/03 02:52:46;;;;;;;;;;;16.10;99.90;;;;;;5121227;28;19954;-60
2023/08/03 02:55:12;;;;;;;;;;;16.10;99.90;;;;;;5120847;28;19908;-60
2023/08/03 02:57:38;;;;;;;;;;;16.10;99.90;;;;;;5120839;28;19912;-60
2023/08/03 03:00:04;;;;;;;;;;;16.10;99.90;;;;;;5121384;28;19907;-60
2023/08/03 03:02:29;;;;;;;;;;;16.10;99.90;;;;;;5121475;28;20278;-60
2023/08/03 03:04:55;;;;;;;;;;;16.10;99.90;;;;;;5121028;28;19912;-60
2023/08/03 03:07:20;;;;;;;;;;;16.10;99.90;;;;;;5120986;28;19929;-60
2023/08/03 03:09:46;;;;;;;;;;;16.10;99.90;;;;;;5121001;28;19929;-60
2023/08/03 03:12:12;;;;;;;;;;;16.10;99.90;;;;;;5120940;28;19915;-60
2023/08/03 03:14:37;;;;;;;;;;;16.10;99.90;;;;;;5120657;28;19908;-60
2023/08/03 03:17:03;;;;;;;;;;;16.10;99.90;;;;;;5120365;28;19916;-60
2023/08/03 03:19:29;;;;;;;;;;;16.10;99.90;;;;;;5120557;28;19912;-60
2023/08/03 03:21:55;;;;;;;;;;;16.10;99.90;;;;;;5120201;28;19928;-60
2023/08/03 03:24:21;;;;;;;;;;;16.10;99.90;;;;;;5120469;28;19911;-60
2023/08/03 03:26:46;;;;;;;;;;;16.10;99.90;;;;;;5120622;28;19908;-60
2023/08/03 03:29:12;;;;;;;;;;;16.10;99.90;;;;;;5120862;28;19986;-60
2023/08/03 03:31:38;;;;;;;;;;;16.10;99.90;;;;;;5120236;28;19908;-60
2023/08/03 03:34:03;;;;;;;;;;;16.10;99.90;;;;;;5120473;28;19917;-60
2023/08/03 03:36:29;;;;;;;;;;;16.00;99.90;;;;;;5120506;28;20976;-60
2023/08/03 03:38:55;;;;;;;;;;;16.00;99.90;;;;;;5120145;28;20351;-60
2023/08/03 03:41:20;;;;;;;;;;;16.00;99.90;;;;;;5120131;28;19932;-60
2023/08/03 03:43:46;;;;;;;;;;;16.00;99.90;;;;;;5120156;28;19915;-60
2023/08/03 03:46:11;;;;;;;;;;;16.00;99.90;;;;;;5120318;28;19973;-60
2023/08/03 03:48:37;;;;;;;;;;;16.00;99.90;;;;;;5120366;28;19915;-60
2023/08/03 03:51:03;;;;;;;;;;;16.00;99.90;;;;;;5101437;28;19907;-60
2023/08/03 03:53:28;;;;;;;;;;;16.00;99.90;;;;;;5120072;28;19994;-60
2023/08/03 03:55:54;;;;;;;;;;;16.00;99.90;;;;;;5120095;28;19908;-60
2023/08/03 03:58:20;;;;;;;;;;;16.00;99.90;;;;;;5119360;28;19924;-59
2023/08/03 04:00:45;;;;;;;;;;;16.00;99.90;;;;;;5119766;28;19915;-60
2023/08/03 04:03:11;;;;;;;;;;;16.00;99.90;;;;;;5120142;28;19908;-60
2023/08/03 04:05:37;;;;;;;;;;;16.00;99.90;;;;;;5119684;28;19930;-60
2023/08/03 04:08:03;;;;;;;;;;;16.00;99.90;;;;;;5119488;28;19954;-60
2023/08/03 04:10:29;;;;;;;;;;;16.00;99.90;;;;;;5119524;28;19919;-60
2023/08/03 04:12:54;;;;;;;;;;;16.00;99.90;;;;;;5101137;28;19908;-60
2023/08/03 04:15:20;;;;;;;;;;;16.00;99.90;;;;;;5119591;28;20002;-60
2023/08/03 04:17:48;;;;;;;;;;;16.00;99.90;;;;;;5119525;28;20355;-60
2023/08/03 04:20:16;;;;;;;;;;;16.00;99.90;;;;;;5119353;28;19907;-60
2023/08/03 04:22:42;;;;;;;;;;;16.00;99.90;;;;;;5119412;28;19912;-60
2023/08/03 04:25:08;;;;;;;;;;;16.00;99.90;;;;;;5119542;28;19908;-60
2023/08/03 04:27:34;;;;;;;;;;;16.00;99.90;;;;;;5119465;28;19930;-60
2023/08/03 04:29:59;;;;;;;;;;;16.00;99.90;;;;;;5119212;28;19908;-60
2023/08/03 04:32:25;;;;;;;;;;;16.00;99.90;;;;;;5119094;28;19930;-60
2023/08/03 04:34:50;;;;;;;;;;;16.00;99.90;;;;;;5119446;28;19908;-60
2023/08/03 04:37:16;;;;;;;;;;;16.00;99.90;;;;;;5119016;28;19916;-60
2023/08/03 04:39:42;;;;;;;;;;;16.00;99.90;;;;;;5118936;28;19937;-59
2023/08/03 04:42:07;;;;;;;;;;;16.00;99.90;;;;;;5119345;28;19938;-60
2023/08/03 04:44:33;;;;;;;;;;;16.00;99.90;;;;;;5118970;28;19915;-60
2023/08/03 04:46:59;;;;;;;;;;;16.00;99.90;;;;;;5119036;28;19966;-60
2023/08/03 04:49:25;;;;;;;;;;;16.00;99.90;;;;;;5118760;28;20375;-60
2023/08/03 04:51:51;;;;;;;;;;;16.00;99.90;;;;;;5118540;28;19994;-60
2023/08/03 04:54:17;;;;;;;;;;;16.00;99.90;;;;;;5118925;28;19908;-60
2023/08/03 04:56:43;;;;;;;;;;;16.00;99.90;;;;;;5118775;28;20424;-60
2023/08/03 04:59:08;;;;;;;;;;;16.00;99.90;;;;;;5118647;28;19958;-60
2023/08/03 05:01:34;;;;;;;;;;;16.00;99.90;;;;;;5118812;28;20274;-60
2023/08/03 05:04:00;;;;;;;;;;;16.00;99.90;;;;;;5118789;28;19908;-60
2023/08/03 05:06:26;;;;;;;;;;;16.00;99.90;;;;;;5118711;28;19908;-60
2023/08/03 05:08:52;;;;;;;;;;;16.00;99.90;;;;;;5118696;28;19993;-60
2023/08/03 05:11:17;;;;;;;;;;;16.00;99.90;;;;;;5118205;28;20294;-60
2023/08/03 05:13:43;;;;;;;;;;;16.00;99.90;;;;;;5118516;28;19908;-60
2023/08/03 05:16:08;;;;;;;;;;;16.10;99.90;;;;;;5118827;28;19923;-60
2023/08/03 05:18:34;;;;;;;;;;;16.10;99.90;;;;;;5118374;28;19947;-60
2023/08/03 05:21:00;;;;;;;;;;;16.10;99.90;;;;;;5096544;28;19926;-60
2023/08/03 05:23:25;;;;;;;;;;;16.10;99.90;;;;;;5098015;28;19908;-60
2023/08/03 05:25:54;;;;;;;;;;;16.10;99.90;;;;;;5098265;28;19908;-60
2023/08/03 05:28:21;;;;;;;;;;;16.10;99.90;;;;;;5098213;28;19994;-60
2023/08/03 05:30:46;;;;;;;;;;;16.10;99.90;;;;;;5098201;28;19914;-60
2023/08/03 05:33:12;;;;;;;;;;;16.10;99.90;;;;;;5097895;28;19908;-60
2023/08/03 05:35:37;;;;;;;;;;;16.10;99.90;;;;;;5097966;28;19916;-60
2023/08/03 05:38:03;;;;;;;;;;;16.20;99.90;;;;;;5097983;28;19940;-60
2023/08/03 05:40:29;;;;;;;;;;;16.20;99.90;;;;;;5098303;28;19934;-60
2023/08/03 05:42:54;;;;;;;;;;;16.20;99.90;;;;;;5097990;28;19931;-60
2023/08/03 05:45:49;;;;;;;;;;;16.20;99.90;;;;;;5098187;28;19963;-60
2023/08/03 05:48:16;;;;;;;;;;;16.30;99.90;;;;;;5088023;28;19908;-60
2023/08/03 05:50:49;;;;;;;;;;;16.20;99.90;;;;;;5096125;28;19909;-59
2023/08/03 05:53:15;;;;;;;;;;;16.30;99.90;;;;;;5097803;28;19908;-60
2023/08/03 05:55:50;;;;;;;;;;;16.30;99.90;;;;;;5097543;28;20037;-60
2023/08/03 05:58:17;;;;;;;;;;;16.30;99.90;;;;;;5097605;28;19965;-60
2023/08/03 06:00:52;;;;;;;;;;;16.30;99.90;;;;;;5106826;28;19915;-60
2023/08/03 06:03:21;;;;;;;;;;;16.30;99.90;;;;;;5116993;28;19908;-60
2023/08/03 06:05:47;;;;;;;;;;;16.30;99.90;;;;;;5117916;28;19908;-60
2023/08/03 06:08:17;;;;;;;;;;;16.30;99.90;;;;;;5117900;28;19957;-60
2023/08/03 06:10:44;;;;;;;;;;;16.40;99.90;;;;;;5117897;28;20354;-60
2023/08/03 06:13:11;;;;;;;;;;;16.30;99.90;;;;;;5118084;28;20255;-60
2023/08/03 06:15:37;;;;;;;;;;;16.30;99.90;;;;;;5117866;28;20011;-60
2023/08/03 06:18:04;;;;;;;;;;;16.40;99.90;;;;;;5117461;28;20373;-60
2023/08/03 06:20:30;;;;;;;;;;;16.40;99.90;;;;;;5121021;28;20374;-60
2023/08/03 06:22:56;;;;;;;;;;;16.40;99.90;;;;;;5140889;27;19907;-60
2023/08/03 06:25:22;;;;;;;;;;;16.40;99.90;;;;;;5142275;27;19908;-60
2023/08/03 06:27:48;;;;;;;;;;;16.40;99.90;;;;;;5142085;27;19914;-60
2023/08/03 06:30:14;;;;;;;;;;;16.50;99.90;;;;;;5142619;27;19907;-60
2023/08/03 06:32:40;;;;;;;;;;;16.50;99.90;;;;;;5142024;27;19913;-60
2023/08/03 06:35:22;;;;;;;;;;;16.50;99.90;;;;;;5142513;27;20316;-60
2023/08/03 06:37:48;;;;;;;;;;;16.50;99.90;;;;;;5141629;27;20368;-60
2023/08/03 06:40:14;;;;;;;;;;;16.50;99.90;;;;;;5142432;27;19947;-60
2023/08/03 06:42:40;;;;;;;;;;;16.50;99.90;;;;;;5141805;27;19908;-60
2023/08/03 06:45:06;;;;;;;;;;;16.50;99.90;;;;;;5142088;27;19994;-60
2023/08/03 06:47:32;;;;;;;;;;;16.50;99.90;;;;;;5141957;27;20270;-60
2023/08/03 06:49:58;;;;;;;;;;;16.50;99.90;;;;;;5141162;27;19943;-60
2023/08/03 06:52:25;;;;;;;;;;;16.50;99.90;;;;;;5131901;27;19987;-60
2023/08/03 06:54:51;;;;;;;;;;;16.60;99.90;;;;;;5129385;27;19907;-60
2023/08/03 06:57:16;;;;;;;;;;;16.60;99.90;;;;;;5133860;27;20378;-60
2023/08/03 06:59:42;;;;;;;;;;;16.60;99.90;;;;;;5129816;27;19908;-60
2023/08/03 07:02:08;;;;;;;;;;;16.60;99.90;;;;;;5131986;27;19915;-60
2023/08/03 07:04:34;;;;;;;;;;;16.60;99.90;;;;;;5111166;27;19908;-59
2023/08/03 07:06:59;;;;;;;;;;;16.60;99.90;;;;;;5114098;27;19918;-60
2023/08/03 07:09:25;;;;;;;;;;;16.70;99.90;;;;;;5126910;27;19907;-60
2023/08/03 07:11:51;;;;;;;;;;;16.60;99.90;;;;;;5123206;27;20333;-60
2023/08/03 07:14:16;;;;;;;;;;;16.60;99.90;;;;;;5120525;28;20346;-60
2023/08/03 07:16:42;;;;;;;;;;;16.60;99.90;;;;;;5120914;28;19976;-60
2023/08/03 07:19:12;;;;;;;;;;;16.60;99.90;;;;;;5120667;28;19920;-60
2023/08/03 07:21:38;;;;;;;;;;;16.70;99.90;;;;;;5120253;28;19920;-60
2023/08/03 07:24:04;;;;;;;;;;;16.70;99.90;;;;;;5120349;28;19907;-60
2023/08/03 07:26:29;;;;;;;;;;;16.70;99.90;;;;;;5120576;28;19919;-60
2023/08/03 07:28:55;;;;;;;;;;;16.70;99.90;;;;;;5120396;28;19908;-60
2023/08/03 07:31:21;;;;;;;;;;;16.80;99.90;;;;;;5120321;28;19908;-60
2023/08/03 07:33:46;;;;;;;;;;;16.80;99.90;;;;;;5119889;28;19914;-60
2023/08/03 07:36:16;;;;;;;;;;;16.80;99.90;;;;;;5120504;28;19908;-60
2023/08/03 07:38:42;;;;;;;;;;;16.80;99.90;;;;;;5101876;28;19918;-60
2023/08/03 07:41:08;;;;;;;;;;;16.90;99.90;;;;;;5120474;28;19908;-59
2023/08/03 07:43:34;;;;;;;;;;;16.90;99.90;;;;;;5120160;28;19915;-60
2023/08/03 07:46:02;;;;;;;;;;;17.00;99.90;;;;;;5120522;28;19908;-60
2023/08/03 07:48:28;;;;;;;;;;;17.00;99.90;;;;;;5119927;28;19917;-60
2023/08/03 07:50:54;;;;;;;;;;;17.00;99.90;;;;;;5120335;28;19908;-60
2023/08/03 07:53:19;;;;;;;;;;;17.00;99.90;;;;;;5120118;28;19943;-60
2023/08/03 07:55:45;;;;;;;;;;;17.10;99.90;;;;;;5120257;28;19907;-60
2023/08/03 07:58:12;;;;;;;;;;;17.10;99.90;;;;;;5119714;28;20023;-60
2023/08/03 08:00:37;;;;;;;;;;;17.20;99.90;;;;;;5119921;28;20308;-60
2023/08/03 08:03:03;;;;;;;;;;;17.30;99.90;;;;;;5119997;28;19908;-60
2023/08/03 08:05:28;;;;;;;;;;;17.30;99.90;;;;;;5119862;28;19998;-60
2023/08/03 08:07:54;;;;;;;;;;;17.40;99.90;;;;;;5119167;28;19908;-60
2023/08/03 08:10:20;;;;;;;;;;;17.40;99.90;;;;;;5132454;27;19928;-60
2023/08/03 08:12:45;;;;;;;;;;;17.40;99.90;;;;;;5138437;27;19920;-60
2023/08/03 08:15:11;;;;;;;;;;;17.40;99.90;;;;;;5140034;27;19907;-60
2023/08/03 08:17:37;;;;;;;;;;;17.50;99.90;;;;;;5140403;27;19918;-60
2023/08/03 08:20:02;;;;;;;;;;;17.50;99.90;;;;;;5139813;27;19916;-60
2023/08/03 08:22:28;;;;;;;;;;;17.50;99.90;;;;;;5140132;27;20358;-60
2023/08/03 08:24:54;;;;;;;;;;;17.60;99.90;;;;;;5140066;27;19953;-60
2023/08/03 08:27:19;;;;;;;;;;;17.60;99.90;;;;;;5139683;27;19956;-60
2023/08/03 08:29:45;;;;;;;;;;;17.60;99.90;;;;;;5139630;27;20298;-60
2023/08/03 08:32:11;;;;;;;;;;;17.60;99.90;;;;;;5139411;27;19907;-60
2023/08/03 08:34:37;;;;;;;;;;;17.60;99.90;;;;;;5139398;27;19908;-60
2023/08/03 08:37:03;;;;;;;;;;;17.60;99.90;;;;;;5139902;27;19915;-60
2023/08/03 08:39:29;;;;;;;;;;;17.60;99.90;;;;;;5139874;27;19911;-60
2023/08/03 08:41:55;;;;;;;;;;;17.50;99.90;;;;;;5139648;27;19923;-60
2023/08/03 08:44:20;;;;;;;;;;;17.50;99.90;;;;;;5139157;27;19907;-60
2023/08/03 08:46:46;;;;;;;;;;;17.50;99.90;;;;;;5139452;27;19908;-60
2023/08/03 08:49:12;;;;;;;;;;;17.50;99.90;;;;;;5139638;27;19907;-60
2023/08/03 08:51:40;;;;;;;;;;;17.50;99.90;;;;;;5139576;27;19908;-60
2023/08/03 08:54:06;;;;;;;;;;;17.50;99.90;;;;;;5139722;27;19914;-60
2023/08/03 08:56:31;;;;;;;;;;;17.50;99.90;;;;;;5139680;27;19907;-60
2023/08/03 08:58:57;;;;;;;;;;;17.50;99.90;;;;;;5139110;27;19919;-60
2023/08/03 09:01:23;;;;;;;;;;;17.60;99.90;;;;;;5139522;27;19907;-60
2023/08/03 09:03:51;;;;;;;;;;;17.60;99.90;;;;;;5139293;27;19994;-60
2023/08/03 09:06:18;;;;;;;;;;;17.60;99.90;;;;;;5139476;27;19910;-60
2023/08/03 09:08:47;;;;;;;;;;;17.70;99.90;;;;;;5139443;27;19964;-60
2023/08/03 09:11:13;;;;;;;;;;;17.80;99.90;;;;;;5139331;27;19914;-60
2023/08/03 09:13:38;;;;;;;;;;;17.90;99.90;;;;;;5139378;27;19926;-60
2023/08/03 09:16:04;;;;;;;;;;;18.10;99.90;;;;;;5139124;27;19914;-60
2023/08/03 09:18:31;;;;;;;;;;;18.10;99.90;;;;;;5139289;27;19915;-61
2023/08/03 09:21:10;;;;;;;;;;;18.10;99.90;;;;;;5138770;27;20002;-60
2023/08/03 09:23:36;;;;;;;;;;;18.00;99.90;;;;;;5139075;27;19914;-60
2023/08/03 09:26:03;;;;;;;;;;;18.00;99.90;;;;;;5138752;27;19915;-60
2023/08/03 09:28:45;;;;;;;;;;;18.00;99.90;;;;;;5139024;27;19908;-60
2023/08/03 09:31:11;;;;;;;;;;;18.00;99.90;;;;;;5139112;27;19914;-61
2023/08/03 09:33:37;;;;;;;;;;;17.90;99.90;;;;;;5139070;27;20273;-60
2023/08/03 09:36:04;;;;;;;;;;;17.90;99.90;;;;;;5138854;28;19918;-60
2023/08/03 09:38:30;;;;;;;;;;;17.90;99.90;;;;;;5139023;28;19915;-60
2023/08/03 09:40:57;;;;;;;;;;;17.90;99.90;;;;;;5138765;28;19907;-61
2023/08/03 09:43:24;;;;;;;;;;;17.90;99.90;;;;;;5138984;28;19915;-60
2023/08/03 09:45:51;;;;;;;;;;;18.00;99.90;;;;;;5138743;28;20392;-60
2023/08/03 09:48:18;;;;;;;;;;;18.10;99.90;;;;;;5138963;28;20002;-60
2023/08/03 09:50:47;;;;;;;;;;;18.10;99.90;;;;;;5138708;28;19908;-60
2023/08/03 09:53:15;;;;;;;;;;;18.20;99.90;;;;;;5139170;28;19907;-60
2023/08/03 09:55:45;;;;;;;;;;;18.20;99.90;;;;;;5138810;27;19930;-60
2023/08/03 09:58:15;;;;;;;;;;;18.20;99.90;;;;;;5143069;27;19911;-60
2023/08/03 10:00:43;;;;;;;;;;;18.30;99.90;;;;;;5143011;27;19907;-60
2023/08/03 10:03:10;;;;;;;;;;;18.40;99.90;;;;;;5142836;27;19908;-60
2023/08/03 10:05:52;;;;;;;;;;;18.50;99.90;;;;;;5142946;27;19994;-60
2023/08/03 10:08:30;;;;;;;;;;;18.50;99.90;;;;;;5142613;27;19961;-60
2023/08/03 10:11:00;;;;;;;;;;;18.70;99.90;;;;;;5142703;27;19919;-60
2023/08/03 10:13:26;;;;;;;;;;;18.80;99.90;;;;;;5142477;27;20374;-60
2023/08/03 10:15:52;;;;;;;;;;;18.90;99.90;;;;;;5140474;27;19915;-60
2023/08/03 10:18:18;;;;;;;;;;;18.00;99.90;;;;;;5141665;27;20295;-60
2023/08/03 10:20:44;;;;;;;;;;;19.00;99.90;;;;;;5138688;27;20317;-60
2023/08/03 10:23:16;;;;;;;;;;;19.10;99.90;;;;;;5121705;28;19919;-60
2023/08/03 10:25:52;;;;;;;;;;;19.10;99.90;;;;;;5121659;28;19957;-60
2023/08/03 10:28:18;;;;;;;;;;;19.10;99.90;;;;;;5121601;28;20455;-60
2023/08/03 10:31:06;;;;;;;;;;;19.10;99.90;;;;;;5121007;28;19930;-60
2023/08/03 10:34:01;;;;;;;;;;;19.10;99.90;;;;;;5121616;28;19977;-60
2023/08/03 10:36:27;;;;;;;;;;;19.30;99.90;;;;;;5099005;27;19996;-60
2023/08/03 10:38:56;;;;;;;;;;;19.40;99.90;;;;;;5121316;28;19911;-60
2023/08/03 10:41:22;;;;;;;;;;;19.30;99.90;;;;;;5121418;28;19965;-60
2023/08/03 10:44:11;;;;;;;;;;;19.30;99.90;;;;;;5121292;28;19914;-60
2023/08/03 10:46:44;;;;;;;;;;;19.10;99.90;;;;;;5121303;27;19918;-60
2023/08/03 10:49:15;;;;;;;;;;;19.10;99.90;;;;;;5121344;28;19912;-60
2023/08/03 10:51:41;;;;;;;;;;;19.00;99.90;;;;;;5121288;28;19961;-60
2023/08/03 10:54:07;;;;;;;;;;;18.90;99.90;;;;;;5121211;28;19912;-60
2023/08/03 10:56:32;;;;;;;;;;;18.90;99.90;;;;;;5121020;27;19919;-61
2023/08/03 10:58:58;;;;;;;;;;;18.80;99.90;;;;;;5121202;28;19916;-60
2023/08/03 11:01:23;;;;;;;;;;;18.80;99.90;;;;;;5121015;28;20061;-60
2023/08/03 11:03:50;;;;;;;;;;;18.80;99.90;;;;;;5121214;28;19919;-60
2023/08/03 11:06:16;;;;;;;;;;;18.60;99.90;;;;;;5121126;28;19957;-60
2023/08/03 11:08:43;;;;;;;;;;;18.60;99.90;;;;;;5119949;28;19947;-60
2023/08/03 11:11:10;;;;;;;;;;;18.60;99.90;;;;;;5120882;28;19958;-60
2023/08/03 11:13:36;;;;;;;;;;;18.70;99.90;;;;;;5120782;28;19922;-60
2023/08/03 11:16:02;;;;;;;;;;;18.70;99.90;;;;;;5121264;28;19943;-60
2023/08/03 11:18:27;;;;;;;;;;;18.80;99.90;;;;;;5102288;28;19912;-60
2023/08/03 11:20:53;;;;;;;;;;;18.80;99.90;;;;;;5120683;28;19965;-60
2023/08/03 11:23:19;;;;;;;;;;;18.90;99.90;;;;;;5120763;28;20023;-60
2023/08/03 11:25:45;;;;;;;;;;;18.80;99.90;;;;;;5120061;28;20279;-60
2023/08/03 11:28:16;;;;;;;;;;;18.90;99.90;;;;;;5120419;28;20286;-60
2023/08/03 11:30:45;;;;;;;;;;;18.90;99.90;;;;;;5120555;28;19911;-60
2023/08/03 11:33:13;;;;;;;;;;;18.90;99.90;;;;;;5120493;28;19907;-60
2023/08/03 11:35:39;;;;;;;;;;;19.10;99.90;;;;;;5120249;28;19907;-61
2023/08/03 11:38:08;;;;;;;;;;;19.20;99.90;;;;;;5120642;28;19919;-60
2023/08/03 11:40:35;;;;;;;;;;;19.30;99.90;;;;;;5120303;28;19943;-60
2023/08/03 11:43:01;;;;;;;;;;;19.30;99.90;;;;;;5120459;28;19915;-60
2023/08/03 11:45:34;;;;;;;;;;;19.40;99.90;;;;;;5120403;28;19999;-60
2023/08/03 11:47:59;;;;;;;;;;;19.60;99.90;;;;;;5120396;28;19915;-60
2023/08/03 11:50:26;;;;;;;;;;;19.80;99.90;;;;;;5119951;28;19907;-61
2023/08/03 11:53:01;;;;;;;;;;;19.90;99.90;;;;;;5119125;28;19915;-61
2023/08/03 11:55:27;;;;;;;;;;;19.90;99.90;;;;;;5118543;28;19908;-61
2023/08/03 11:58:10;;;;;;;;;;;19.90;99.90;;;;;;5118361;28;19915;-61
2023/08/03 12:00:37;;;;;;;;;;;19.90;99.90;;;;;;5119919;28;19912;-61
2023/08/03 12:03:03;;;;;;;;;;;19.80;99.90;;;;;;5119593;28;20351;-61
2023/08/03 12:05:41;;;;;;;;;;;19.80;99.90;;;;;;5119751;28;19915;-61
2023/08/03 12:08:08;;;;;;;;;;;19.80;99.90;;;;;;5119746;28;19907;-61
2023/08/03 12:10:34;;;;;;;;;;;19.80;99.90;;;;;;5119754;28;20002;-61
2023/08/03 12:13:00;;;;;;;;;;;20.00;99.90;;;;;;5119665;28;19939;-61
2023/08/03 12:15:26;;;;;;;;;;;20.20;99.90;;;;;;5119880;28;19907;-61
2023/08/03 12:17:52;;;;;;;;;;;20.30;99.90;;;;;;5119423;28;20405;-61
2023/08/03 12:20:17;;;;;;;;;;;20.50;99.90;;;;;;5119264;28;19924;-61
2023/08/03 12:22:43;;;;;;;;;;;20.70;99.90;;;;;;5119624;28;19908;-61
2023/08/03 12:25:08;;;;;;;;;;;21.00;99.90;;;;;;5119353;28;20389;-61
2023/08/03 12:27:34;;;;;;;;;;;21.20;99.90;;;;;;5119659;28;20298;-61
2023/08/03 12:30:00;;;;;;;;;;;21.50;99.90;;;;;;5119336;28;20372;-61
2023/08/03 12:32:25;;;;;;;;;;;21.70;99.90;;;;;;5119297;28;19950;-61
2023/08/03 12:34:51;;;;;;;;;;;22.00;99.90;;;;;;5119066;28;19914;-61
2023/08/03 12:37:17;;;;;;;;;;;22.20;99.90;;;;;;5119323;28;19908;-61
2023/08/03 12:39:43;;;;;;;;;;;22.00;99.90;;;;;;5119623;28;20379;-61
2023/08/03 12:42:09;;;;;;;;;;;21.80;99.90;;;;;;5119333;28;19909;-61
2023/08/03 12:44:34;;;;;;;;;;;21.80;99.90;;;;;;5119522;28;20390;-61
2023/08/03 12:47:00;;;;;;;;;;;21.50;99.90;;;;;;5118982;28;19915;-61
2023/08/03 12:49:26;;;;;;;;;;;21.20;99.90;;;;;;5119149;28;19908;-61
2023/08/03 12:51:51;;;;;;;;;;;20.90;99.90;;;;;;5118960;28;19908;-61
2023/08/03 12:54:17;;;;;;;;;;;20.90;99.90;;;;;;5119041;28;19908;-61
2023/08/03 12:56:46;;;;;;;;;;;20.90;99.90;;;;;;5118997;28;19915;-61
2023/08/03 12:59:11;;;;;;;;;;;21.00;99.90;;;;;;5118920;28;19911;-61
2023/08/03 13:01:37;;;;;;;;;;;21.20;99.90;;;;;;5118977;28;19911;-61
2023/08/03 13:04:02;;;;;;;;;;;21.40;99.90;;;;;;5119109;28;19915;-61
2023/08/03 13:06:28;;;;;;;;;;;21.50;99.90;;;;;;5118945;28;19908;-61
2023/08/03 13:08:54;;;;;;;;;;;21.40;99.90;;;;;;5118838;28;19941;-61
2023/08/03 13:11:20;;;;;;;;;;;21.50;99.90;;;;;;5118795;28;20342;-61
2023/08/03 13:13:46;;;;;;;;;;;21.40;99.90;;;;;;5118749;28;19908;-61
2023/08/03 13:16:11;;;;;;;;;;;21.30;99.90;;;;;;5118471;28;19912;-61
2023/08/03 13:18:37;;;;;;;;;;;21.20;99.90;;;;;;5100187;28;19922;-61
2023/08/03 13:21:03;;;;;;;;;;;21.40;99.90;;;;;;5118180;28;19920;-61
2023/08/03 13:23:28;;;;;;;;;;;21.40;99.90;;;;;;5118469;28;20370;-61
2023/08/03 13:25:54;;;;;;;;;;;21.40;99.90;;;;;;5118078;28;19908;-61
2023/08/03 13:28:19;;;;;;;;;;;21.30;99.90;;;;;;5118489;28;19912;-61
2023/08/03 13:30:45;;;;;;;;;;;21.20;99.90;;;;;;5117852;28;19908;-61
2023/08/03 13:33:11;;;;;;;;;;;21.40;99.90;;;;;;5118785;28;19958;-61
2023/08/03 13:35:36;;;;;;;;;;;21.70;99.90;;;;;;5118288;28;19945;-61
2023/08/03 13:38:02;;;;;;;;;;;21.90;99.90;;;;;;5118082;28;19912;-61
2023/08/03 13:40:28;;;;;;;;;;;22.10;99.90;;;;;;5118228;28;20327;-61
2023/08/03 13:42:53;;;;;;;;;;;22.10;99.90;;;;;;5118600;28;19908;-61
2023/08/03 13:45:19;;;;;;;;;;;22.10;99.90;;;;;;5118154;28;19928;-61
2023/08/03 13:47:44;;;;;;;;;;;22.40;99.90;;;;;;5118277;28;20374;-61
2023/08/03 13:50:10;;;;;;;;;;;22.80;99.90;;;;;;5117816;28;20363;-61
2023/08/03 13:52:36;;;;;;;;;;;22.80;99.90;;;;;;5118115;28;19930;-61
2023/08/03 13:55:02;;;;;;;;;;;23.00;99.90;;;;;;5118527;28;19969;-61
2023/08/03 13:57:28;;;;;;;;;;;23.00;99.90;;;;;;5118164;28;19912;-61
2023/08/03 13:59:53;;;;;;;;;;;22.80;99.90;;;;;;5118273;28;19916;-61
2023/08/03 14:02:19;;;;;;;;;;;22.90;99.90;;;;;;5117827;28;19918;-61
2023/08/03 14:04:45;;;;;;;;;;;22.80;99.90;;;;;;5118179;28;19908;-61
2023/08/03 14:07:11;;;;;;;;;;;22.80;99.90;;;;;;5118169;28;19915;-61
2023/08/03 14:09:37;;;;;;;;;;;23.00;99.90;;;;;;5118308;28;19998;-61
2023/08/03 14:12:03;;;;;;;;;;;23.10;99.90;;;;;;5117738;28;19966;-61